Kezdőlap
METAR-TAF:

METAR-TAF

Repülőterek :

Big Spring McMahon-Wrinkle Airport

Big Spring, Texas, Amerikai Egyesült Államok

földrajzi szélesség: 32-12N, földrajzi hosszúság: 101-31W, magasság: 784 m

Jelenlegi meteorológiai megfigyelések

A jelentés 26 perccel ezelõtt készült, 03:35 UTC
Déli szél 9 kt
Hőmérséklet 27°C
Páratartalom 62%
Légköri nyomás 1020 hPa
Látótávolság: 16.1 km
Szórványos felhőzet 3100 lábon
Szórványos felhőzet 4300 lábon
Szórványos felhőzet 10000 lábon
esõ

METAR: KBPG 220335Z AUTO 17009KT 10SM RA SCT031 SCT043 SCT100 27/19 A3013 RMK AO2 T02740185

Idő: 23:01 (04:01 UTC)


TAF: hiányzik

Meteorológiai megfigyelések és előrejelzések több, mint 4000 repülőtéren (METAR és TAF jelentéseket).

A térképen piros és sárga pontok jelzik az elérhető meteorológiai állomásokat.

Mozgassa az egeret a pont fölött, hogy megjelenjen az állomás neve.

Azután kattintson az időjárási megfigyelések és előrejelzések megtekintéséhez.

A térkép megváltoztatása: kattintson a fekete keresztel jelölt zöld gombra ráközelítéshez, a vonallal jelölt zöld gombra távolításhoz, vagy a zöld nyilakra a szomszédos térképek eléréséhez.


METAR-TAF: